createdAt,value
2023-09-07T00:01:02.431Z,6.93
2023-09-07T00:03:29.379Z,5.78
2023-09-07T00:05:57.422Z,4.57
2023-09-07T00:08:24.092Z,5.32
2023-09-07T00:10:50.793Z,4.43
2023-09-07T00:13:17.582Z,4.00
2023-09-07T00:15:44.286Z,6.00
2023-09-07T00:18:11.059Z,5.25
2023-09-07T00:20:37.779Z,4.50
2023-09-07T00:23:06.023Z,7.70
2023-09-07T00:25:32.678Z,4.60
2023-09-07T00:27:59.394Z,4.93
2023-09-07T00:30:26.167Z,6.63
2023-09-07T00:32:52.865Z,5.85
2023-09-07T00:35:19.756Z,5.07
2023-09-07T00:37:46.511Z,4.60
2023-09-07T00:40:15.030Z,5.80
2023-09-07T00:42:41.780Z,5.03
2023-09-07T00:45:09.386Z,4.97
2023-09-07T00:47:36.441Z,7.03
2023-09-07T00:50:03.541Z,5.53
2023-09-07T00:52:31.260Z,6.13
2023-09-07T00:54:58.193Z,4.97
2023-09-07T00:57:26.423Z,4.70
2023-09-07T00:59:53.854Z,6.35
2023-09-07T01:02:20.851Z,5.43
2023-09-07T01:04:48.139Z,5.20
2023-09-07T01:07:18.300Z,15.10
2023-09-07T01:09:48.062Z,6.03
2023-09-07T01:12:15.555Z,5.20
2023-09-07T01:14:44.194Z,6.68
2023-09-07T01:17:11.727Z,5.78
2023-09-07T01:19:39.386Z,6.25
2023-09-07T01:22:08.277Z,7.43
2023-09-07T01:24:35.682Z,5.50
2023-09-07T01:27:02.870Z,5.47
2023-09-07T01:29:29.796Z,5.25
2023-09-07T01:31:56.737Z,10.88
2023-09-07T01:34:23.935Z,7.10
2023-09-07T01:36:50.820Z,6.50
2023-09-07T01:39:18.858Z,9.45
2023-09-07T01:41:45.749Z,4.93
2023-09-07T01:44:12.556Z,6.35
2023-09-07T01:46:39.358Z,5.18
2023-09-07T01:49:06.097Z,6.10
2023-09-07T01:51:33.370Z,5.93
2023-09-07T01:54:00.108Z,7.57
2023-09-07T01:56:28.320Z,4.95
2023-09-07T01:58:55.225Z,5.55
2023-09-07T02:01:23.366Z,5.18
2023-09-07T02:03:50.104Z,9.82
2023-09-07T02:06:16.886Z,5.22
2023-09-07T02:08:43.871Z,6.60
2023-09-07T02:11:11.256Z,5.00
2023-09-07T02:13:42.739Z,5.35
2023-09-07T02:16:09.910Z,7.57
2023-09-07T02:18:37.185Z,5.80
2023-09-07T02:21:04.056Z,5.13
2023-09-07T02:23:31.346Z,7.95
2023-09-07T02:25:58.790Z,5.60
2023-09-07T02:28:25.641Z,5.72
2023-09-07T02:30:54.144Z,5.57
2023-09-07T02:33:21.369Z,6.82
2023-09-07T02:35:49.137Z,7.70
2023-09-07T02:38:15.953Z,6.57
2023-09-07T02:40:43.106Z,5.65
2023-09-07T02:43:09.836Z,6.32
2023-09-07T02:45:36.905Z,5.63
2023-09-07T02:48:06.890Z,7.82
2023-09-07T02:50:35.344Z,6.03
2023-09-07T02:53:02.986Z,5.45
2023-09-07T02:55:30.089Z,6.25
2023-09-07T02:57:57.915Z,6.05
2023-09-07T03:00:25.048Z,6.03
2023-09-07T03:02:52.432Z,5.07
2023-09-07T03:05:20.865Z,5.50
2023-09-07T03:07:48.109Z,5.95
2023-09-07T03:10:17.330Z,5.25
2023-09-07T03:12:45.289Z,6.22
2023-09-07T03:15:12.667Z,5.03
2023-09-07T03:17:41.002Z,5.10
2023-09-07T03:20:09.224Z,7.95
2023-09-07T03:22:37.294Z,5.03
2023-09-07T03:25:04.180Z,5.38
2023-09-07T03:27:31.032Z,8.25
2023-09-07T03:29:58.220Z,5.82
2023-09-07T03:32:25.103Z,5.57
2023-09-07T03:34:51.841Z,5.43
2023-09-07T03:37:18.615Z,6.75
2023-09-07T03:39:46.672Z,6.38
2023-09-07T03:42:13.621Z,5.43
2023-09-07T03:44:40.408Z,5.95
2023-09-07T03:47:07.498Z,6.68
2023-09-07T03:49:34.218Z,5.28
2023-09-07T03:52:01.063Z,5.55
2023-09-07T03:54:28.367Z,5.97
2023-09-07T03:56:56.442Z,6.80
2023-09-07T03:59:23.279Z,5.55
2023-09-07T04:01:50.539Z,5.68
2023-09-07T04:04:17.346Z,11.50
2023-09-07T04:06:47.380Z,9.15
2023-09-07T04:09:14.174Z,5.10
2023-09-07T04:11:41.141Z,6.95
2023-09-07T04:14:09.659Z,8.15
2023-09-07T04:16:36.326Z,6.50
2023-09-07T04:19:03.063Z,5.70
2023-09-07T04:21:29.747Z,8.23
2023-09-07T04:23:56.478Z,5.65
2023-09-07T04:26:23.174Z,6.68
2023-09-07T04:28:50.152Z,5.97
2023-09-07T04:31:18.303Z,8.13
2023-09-07T04:33:45.050Z,6.93
2023-09-07T04:36:14.337Z,6.20
2023-09-07T04:38:47.691Z,6.03
2023-09-07T04:41:15.065Z,6.00
2023-09-07T04:43:43.367Z,8.32
2023-09-07T04:46:10.589Z,6.00
2023-09-07T04:48:38.812Z,5.65
2023-09-07T04:51:06.831Z,7.05
2023-09-07T04:53:36.232Z,6.78
2023-09-07T04:56:05.658Z,6.03
2023-09-07T04:58:32.942Z,5.80
2023-09-07T05:01:03.137Z,7.70
2023-09-07T05:03:30.711Z,6.55
2023-09-07T05:05:58.838Z,7.07
2023-09-07T05:08:25.615Z,10.70
2023-09-07T05:10:56.357Z,7.95
2023-09-07T05:13:23.556Z,7.13
2023-09-07T05:15:50.921Z,6.43
2023-09-07T05:18:19.775Z,8.75
2023-09-07T05:20:47.067Z,8.02
2023-09-07T05:23:15.480Z,7.60
2023-09-07T05:25:45.465Z,8.07
2023-09-07T05:28:13.787Z,8.60
2023-09-07T05:30:40.904Z,6.43
2023-09-07T05:33:07.734Z,10.00
2023-09-07T05:35:34.530Z,10.00
2023-09-07T05:38:01.787Z,6.78
2023-09-07T05:40:30.083Z,7.50
2023-09-07T05:42:56.893Z,9.85
2023-09-07T05:45:24.002Z,8.55
2023-09-07T05:47:50.849Z,8.73
2023-09-07T05:50:17.676Z,10.45
2023-09-07T05:52:44.551Z,11.57
2023-09-07T05:55:11.377Z,8.95
2023-09-07T05:57:39.959Z,8.18
2023-09-07T06:00:08.234Z,12.35
2023-09-07T06:02:40.238Z,10.60
2023-09-07T06:05:10.627Z,10.38
2023-09-07T06:07:37.798Z,9.65
2023-09-07T06:10:05.410Z,9.57
2023-09-07T06:12:32.962Z,10.00
2023-09-07T06:15:01.381Z,8.70
2023-09-07T06:17:29.084Z,8.35
2023-09-07T06:19:57.372Z,9.80
2023-09-07T06:22:25.652Z,10.40
2023-09-07T06:24:53.212Z,9.18
2023-09-07T06:27:20.834Z,6.75
2023-09-07T06:29:47.617Z,6.53
2023-09-07T06:32:16.367Z,8.00
2023-09-07T06:34:43.667Z,6.45
2023-09-07T06:37:10.556Z,6.60
2023-09-07T06:39:37.526Z,7.43
2023-09-07T06:42:05.024Z,8.02
2023-09-07T06:44:39.136Z,8.00
2023-09-07T06:47:06.346Z,8.85
2023-09-07T06:49:34.434Z,7.97
2023-09-07T06:52:01.539Z,11.40
2023-09-07T06:54:31.333Z,6.75
2023-09-07T06:56:58.276Z,12.40
2023-09-07T06:59:25.102Z,11.60
2023-09-07T07:01:51.963Z,6.40
2023-09-07T07:04:18.765Z,5.65
2023-09-07T07:06:46.948Z,8.30
2023-09-07T07:09:13.778Z,5.28
2023-09-07T07:11:41.046Z,4.45
2023-09-07T07:14:07.904Z,5.18
2023-09-07T07:16:34.814Z,5.40
2023-09-07T07:19:01.795Z,4.82
2023-09-07T07:21:28.597Z,4.72
2023-09-07T07:23:56.766Z,6.63
2023-09-07T07:26:23.496Z,5.93
2023-09-07T07:28:50.767Z,5.13
2023-09-07T07:31:17.593Z,5.65
2023-09-07T07:33:48.431Z,5.57
2023-09-07T07:36:15.512Z,6.35
2023-09-07T07:38:42.948Z,5.10
2023-09-07T07:41:11.132Z,6.07
2023-09-07T07:43:37.895Z,9.30
2023-09-07T07:46:05.173Z,5.80
2023-09-07T07:48:33.340Z,5.47
2023-09-07T07:51:03.883Z,7.75
2023-09-07T07:53:31.089Z,9.55
2023-09-07T07:55:58.138Z,4.50
2023-09-07T07:58:26.940Z,3.83
2023-09-07T08:00:54.085Z,4.72
2023-09-07T08:05:52.858Z,3.13
2023-09-07T08:08:19.951Z,5.13
2023-09-07T08:10:46.792Z,5.22
2023-09-07T08:13:14.073Z,3.95
2023-09-07T08:15:43.038Z,5.85
2023-09-07T08:18:11.095Z,3.63
2023-09-07T08:20:38.466Z,3.90
2023-09-07T08:23:05.321Z,5.88
2023-09-07T08:25:32.704Z,6.15
2023-09-07T08:27:59.736Z,6.25
2023-09-07T08:30:26.464Z,7.57
2023-09-07T08:32:54.584Z,3.72
2023-09-07T08:35:21.331Z,3.55
2023-09-07T08:37:48.184Z,4.18
2023-09-07T08:40:15.961Z,5.90
2023-09-07T08:42:42.807Z,3.95
2023-09-07T08:45:11.831Z,3.17
2023-09-07T08:47:39.428Z,5.15
2023-09-07T08:50:09.844Z,4.13
2023-09-07T08:52:37.152Z,5.13
2023-09-07T08:55:04.330Z,3.45
2023-09-07T08:57:31.888Z,3.25
2023-09-07T08:59:58.630Z,4.28
2023-09-07T09:02:25.523Z,2.50
2023-09-07T09:04:52.454Z,2.30
2023-09-07T09:07:21.222Z,4.05
2023-09-07T09:09:48.528Z,5.18
2023-09-07T09:12:15.219Z,5.03
2023-09-07T09:14:43.522Z,4.68
2023-09-07T09:17:12.720Z,2.72
2023-09-07T09:19:39.566Z,4.22
2023-09-07T09:22:07.124Z,3.03
2023-09-07T09:24:35.907Z,2.35
2023-09-07T09:27:02.697Z,2.55
2023-09-07T09:29:29.490Z,3.60
2023-09-07T09:31:56.638Z,3.63
2023-09-07T09:34:23.439Z,2.35
2023-09-07T09:36:50.279Z,2.65
2023-09-07T09:39:24.136Z,3.65
2023-09-07T09:41:53.480Z,4.80
2023-09-07T09:44:22.307Z,4.28
2023-09-07T09:46:50.725Z,3.05
2023-09-07T09:49:18.636Z,4.22
2023-09-07T09:51:46.701Z,2.55
2023-09-07T09:54:13.396Z,3.78
2023-09-07T09:56:40.134Z,4.13
2023-09-07T09:59:08.232Z,4.05
2023-09-07T10:01:41.462Z,3.33
2023-09-07T10:04:10.496Z,1.73
2023-09-07T10:06:37.138Z,4.05
2023-09-07T10:09:06.026Z,3.35
2023-09-07T10:11:34.364Z,1.52
2023-09-07T10:14:02.033Z,2.15
2023-09-07T10:16:30.296Z,2.15
2023-09-07T10:18:57.015Z,4.43
2023-09-07T10:21:25.999Z,2.45
2023-09-07T10:23:52.918Z,3.08
2023-09-07T10:26:20.571Z,2.13
2023-09-07T10:28:47.790Z,2.95
2023-09-07T10:31:16.054Z,1.73
2023-09-07T10:33:44.924Z,1.80
2023-09-07T10:36:22.244Z,2.38
2023-09-07T10:38:49.326Z,1.90
2023-09-07T10:41:16.209Z,4.32
2023-09-07T10:43:48.894Z,3.97
2023-09-07T10:46:15.866Z,2.00
2023-09-07T10:48:44.017Z,3.33
2023-09-07T10:51:10.709Z,2.35
2023-09-07T10:53:37.650Z,2.75
2023-09-07T10:56:05.765Z,1.65
2023-09-07T10:58:34.150Z,2.85
2023-09-07T11:01:01.617Z,4.00
2023-09-07T11:03:29.213Z,3.30
2023-09-07T11:06:00.564Z,4.38
2023-09-07T11:08:29.509Z,2.30
2023-09-07T11:10:56.408Z,2.42
2023-09-07T11:13:24.526Z,3.08
2023-09-07T11:15:54.874Z,2.45
2023-09-07T11:18:22.023Z,6.07
2023-09-07T11:20:50.137Z,3.15
2023-09-07T11:23:19.017Z,5.22
2023-09-07T11:25:48.020Z,3.00
2023-09-07T11:28:17.709Z,1.70
2023-09-07T11:30:50.743Z,4.75
2023-09-07T11:33:17.603Z,4.00
2023-09-07T11:35:44.278Z,2.85
2023-09-07T11:38:14.400Z,3.63
2023-09-07T11:43:09.382Z,1.60
2023-09-07T11:45:36.149Z,2.00
2023-09-07T11:48:03.015Z,3.03
2023-09-07T11:50:29.926Z,3.55
2023-09-07T11:52:56.652Z,2.20
2023-09-07T11:55:23.613Z,1.75
2023-09-07T11:57:51.667Z,4.43
2023-09-07T12:00:19.199Z,1.42
2023-09-07T12:02:46.011Z,2.05
2023-09-07T12:05:12.901Z,2.28
2023-09-07T12:07:39.901Z,4.47
2023-09-07T12:10:07.602Z,2.97
2023-09-07T12:12:34.296Z,1.70
2023-09-07T12:15:02.271Z,1.92
2023-09-07T12:17:29.092Z,1.55
2023-09-07T12:19:55.834Z,2.35
2023-09-07T12:22:22.526Z,1.80
2023-09-07T12:24:58.763Z,4.43
2023-09-07T12:27:43.922Z,3.30
2023-09-07T12:30:22.305Z,5.78
2023-09-07T12:32:49.447Z,1.40
2023-09-07T12:35:16.767Z,3.08
2023-09-07T12:37:44.126Z,2.33
2023-09-07T12:40:12.544Z,2.38
2023-09-07T12:42:43.497Z,2.50
2023-09-07T12:45:10.823Z,3.00
2023-09-07T12:47:39.746Z,4.18
2023-09-07T12:50:07.190Z,1.95
2023-09-07T12:52:35.295Z,2.50
2023-09-07T12:55:02.347Z,3.58
2023-09-07T12:57:29.068Z,2.45
2023-09-07T12:59:55.848Z,5.10
2023-09-07T13:02:23.668Z,4.57
2023-09-07T13:04:51.736Z,3.97
2023-09-07T13:07:19.152Z,3.05
2023-09-07T13:09:45.875Z,6.07
2023-09-07T13:12:12.505Z,2.80
2023-09-07T13:14:39.287Z,3.97
2023-09-07T13:17:06.014Z,2.40
2023-09-07T13:19:32.892Z,5.32
2023-09-07T13:22:00.907Z,2.42
2023-09-07T13:24:27.570Z,3.30
2023-09-07T13:26:54.368Z,1.77
2023-09-07T13:29:21.049Z,2.33
2023-09-07T13:31:47.706Z,2.50
2023-09-07T13:34:14.357Z,2.10
2023-09-07T13:36:40.998Z,5.70
2023-09-07T13:39:09.011Z,4.30
2023-09-07T13:41:35.954Z,1.95
2023-09-07T13:44:02.617Z,2.47
2023-09-07T13:46:29.437Z,2.15
2023-09-07T13:48:56.171Z,2.38
2023-09-07T13:51:23.109Z,2.00
2023-09-07T13:53:49.777Z,2.60
2023-09-07T13:56:18.442Z,2.80
2023-09-07T13:58:45.209Z,2.00
2023-09-07T14:01:11.962Z,3.90
2023-09-07T14:03:38.734Z,3.35
2023-09-07T14:06:05.620Z,2.10
2023-09-07T14:08:32.290Z,3.20
2023-09-07T14:11:00.849Z,4.47
2023-09-07T14:13:29.251Z,4.03
2023-09-07T14:15:56.008Z,5.53
2023-09-07T14:18:22.791Z,5.22
2023-09-07T14:20:49.534Z,2.00
2023-09-07T14:23:16.132Z,2.03
2023-09-07T14:25:43.096Z,2.42
2023-09-07T14:28:09.853Z,1.80
2023-09-07T14:30:37.965Z,4.18
2023-09-07T14:33:05.124Z,3.50
2023-09-07T14:35:32.018Z,2.40
2023-09-07T14:37:58.808Z,2.17
2023-09-07T14:40:25.714Z,3.88
2023-09-07T14:42:52.411Z,3.85
2023-09-07T14:45:19.106Z,1.92
2023-09-07T14:47:47.136Z,2.25
2023-09-07T14:50:13.762Z,2.40
2023-09-07T14:52:40.684Z,2.47
2023-09-07T14:55:08.576Z,3.35
2023-09-07T14:57:35.536Z,3.60
2023-09-07T15:00:03.205Z,2.15
2023-09-07T15:02:30.272Z,2.42
2023-09-07T15:04:58.415Z,2.53
2023-09-07T15:07:25.118Z,2.67
2023-09-07T15:09:51.854Z,3.15
2023-09-07T15:12:18.488Z,2.55
2023-09-07T15:14:45.259Z,2.17
2023-09-07T15:17:12.562Z,2.25
2023-09-07T15:19:41.051Z,2.22
2023-09-07T15:22:09.415Z,4.13
2023-09-07T15:24:36.107Z,4.53
2023-09-07T15:27:08.410Z,5.93
2023-09-07T15:29:35.145Z,6.13
2023-09-07T15:32:02.051Z,5.22
2023-09-07T15:34:28.862Z,3.22
2023-09-07T15:36:55.603Z,2.70
2023-09-07T15:39:23.658Z,3.63
2023-09-07T15:41:50.371Z,2.60
2023-09-07T15:44:17.040Z,2.40
2023-09-07T15:46:43.743Z,2.40
2023-09-07T15:49:10.509Z,4.25
2023-09-07T15:51:37.201Z,4.35
2023-09-07T15:54:04.014Z,2.92
2023-09-07T15:56:32.117Z,2.90
2023-09-07T15:58:58.812Z,2.83
2023-09-07T16:01:25.549Z,3.10
2023-09-07T16:03:52.278Z,3.85
2023-09-07T16:06:19.070Z,2.67
2023-09-07T16:08:45.775Z,5.60
2023-09-07T16:11:12.546Z,3.40
2023-09-07T16:13:40.687Z,3.75
2023-09-07T16:16:07.431Z,2.97
2023-09-07T16:18:34.320Z,4.15
2023-09-07T16:21:01.334Z,3.88
2023-09-07T16:23:28.019Z,4.18
2023-09-07T16:25:54.742Z,3.70
2023-09-07T16:28:21.362Z,4.93
2023-09-07T16:30:51.448Z,2.78
2023-09-07T16:33:18.218Z,3.47
2023-09-07T16:35:45.063Z,3.65
2023-09-07T16:38:11.849Z,2.25
2023-09-07T16:40:39.393Z,3.42
2023-09-07T16:43:06.160Z,2.97
2023-09-07T16:45:32.970Z,5.45
2023-09-07T16:48:01.010Z,3.97
2023-09-07T16:50:27.653Z,5.65
2023-09-07T16:52:54.401Z,2.47
2023-09-07T16:55:21.043Z,2.58
2023-09-07T16:57:47.698Z,2.72
2023-09-07T17:00:14.771Z,2.60
2023-09-07T17:02:41.462Z,2.40
2023-09-07T17:05:09.908Z,3.92
2023-09-07T17:07:36.688Z,5.93
2023-09-07T17:10:03.594Z,2.55
2023-09-07T17:12:30.253Z,3.67
2023-09-07T17:14:57.217Z,5.88
2023-09-07T17:17:24.101Z,4.03
2023-09-07T17:19:50.834Z,4.45
2023-09-07T17:22:19.006Z,7.25
2023-09-07T17:24:45.662Z,3.60
2023-09-07T17:27:12.360Z,4.20
2023-09-07T17:29:39.203Z,4.03
2023-09-07T17:32:06.475Z,8.32
2023-09-07T17:34:33.304Z,9.27
2023-09-07T17:37:00.050Z,7.32
2023-09-07T17:39:28.146Z,5.15
2023-09-07T17:41:54.890Z,4.65
2023-09-07T17:44:21.692Z,4.90
2023-09-07T17:46:50.326Z,8.18
2023-09-07T17:49:17.404Z,2.97
2023-09-07T17:51:44.046Z,2.85
2023-09-07T17:54:10.876Z,4.97
2023-09-07T17:56:39.051Z,3.90
2023-09-07T17:59:05.780Z,3.00
2023-09-07T18:01:32.483Z,3.75
2023-09-07T18:03:59.265Z,4.20
2023-09-07T18:06:26.049Z,3.95
2023-09-07T18:08:52.744Z,2.97
2023-09-07T18:11:19.470Z,4.55
2023-09-07T18:13:49.613Z,5.45
2023-09-07T18:16:18.736Z,3.55
2023-09-07T18:18:45.475Z,5.90
2023-09-07T18:21:12.192Z,21.70
2023-09-07T18:23:38.897Z,17.42
2023-09-07T18:26:05.521Z,24.90
2023-09-07T18:28:33.088Z,22.90
2023-09-07T18:31:01.765Z,13.70
2023-09-07T18:33:28.594Z,9.15
2023-09-07T18:36:02.644Z,7.28
2023-09-07T18:38:29.395Z,5.70
2023-09-07T18:40:56.158Z,4.32
2023-09-07T18:43:23.081Z,5.30
2023-09-07T18:45:49.828Z,3.40
2023-09-07T18:48:18.058Z,4.53
2023-09-07T18:50:44.782Z,6.60
2023-09-07T18:53:11.726Z,4.50
2023-09-07T18:55:40.059Z,4.05
2023-09-07T18:58:06.718Z,3.25
2023-09-07T19:00:33.466Z,4.13
2023-09-07T19:03:00.350Z,4.05
2023-09-07T19:05:28.648Z,3.67
2023-09-07T19:07:55.539Z,3.72
2023-09-07T19:10:22.322Z,3.75
2023-09-07T19:12:49.145Z,4.30
2023-09-07T19:15:16.001Z,4.18
2023-09-07T19:17:42.710Z,3.47
2023-09-07T19:20:10.853Z,4.85
2023-09-07T19:22:39.056Z,3.30
2023-09-07T19:25:06.599Z,3.63
2023-09-07T19:27:33.376Z,3.63
2023-09-07T19:30:00.296Z,3.15
2023-09-07T19:32:27.096Z,6.28
2023-09-07T19:34:53.811Z,2.92
2023-09-07T19:37:20.455Z,3.88
2023-09-07T19:39:48.585Z,5.10
2023-09-07T19:42:15.474Z,3.15
2023-09-07T19:44:42.239Z,2.83
2023-09-07T19:47:08.926Z,3.35
2023-09-07T19:49:35.613Z,3.30
2023-09-07T19:52:02.344Z,4.05
2023-09-07T19:54:29.140Z,3.28
2023-09-07T19:56:57.344Z,5.68
2023-09-07T19:59:24.041Z,4.20
2023-09-07T20:01:55.380Z,4.00
2023-09-07T20:04:23.065Z,3.20
2023-09-07T20:06:50.092Z,4.03
2023-09-07T20:09:17.738Z,3.28
2023-09-07T20:11:45.466Z,4.38
2023-09-07T20:14:13.524Z,6.38
2023-09-07T20:16:40.354Z,6.13
2023-09-07T20:19:07.482Z,4.25
2023-09-07T20:21:34.236Z,3.30
2023-09-07T20:24:01.130Z,3.50
2023-09-07T20:26:27.921Z,6.07
2023-09-07T20:28:55.439Z,3.42
2023-09-07T20:31:23.747Z,4.07
2023-09-07T20:33:50.591Z,4.45
2023-09-07T20:36:17.489Z,8.85
2023-09-07T20:38:44.703Z,11.20
2023-09-07T20:41:11.352Z,5.68
2023-09-07T20:43:37.959Z,4.80
2023-09-07T20:46:04.820Z,4.55
2023-09-07T20:48:33.517Z,3.70
2023-09-07T20:51:00.633Z,3.50
2023-09-07T20:53:27.517Z,4.72
2023-09-07T20:55:54.151Z,5.22
2023-09-07T20:58:20.816Z,6.13
2023-09-07T21:00:47.536Z,5.55
2023-09-07T21:03:14.491Z,6.55
2023-09-07T21:05:42.763Z,5.18
2023-09-07T21:08:09.526Z,3.47
2023-09-07T21:10:36.222Z,5.03
2023-09-07T21:13:02.970Z,5.85
2023-09-07T21:15:29.576Z,4.03
2023-09-07T21:17:57.549Z,6.40
2023-09-07T21:20:24.734Z,7.25
2023-09-07T21:22:54.832Z,7.22
2023-09-07T21:25:21.577Z,7.45
2023-09-07T21:27:48.341Z,5.93
2023-09-07T21:30:15.544Z,4.13
2023-09-07T21:32:42.231Z,8.43
2023-09-07T21:35:09.201Z,5.35
2023-09-07T21:37:35.916Z,8.68
2023-09-07T21:40:04.346Z,6.93
2023-09-07T21:42:33.574Z,5.50
2023-09-07T21:45:00.813Z,3.00
2023-09-07T21:47:27.633Z,6.65
2023-09-07T21:49:54.408Z,5.88
2023-09-07T21:52:21.205Z,7.28
2023-09-07T21:54:47.859Z,7.00
2023-09-07T21:57:16.158Z,8.25
2023-09-07T21:59:42.845Z,6.68
2023-09-07T22:02:09.586Z,4.30
2023-09-07T22:04:36.450Z,6.97
2023-09-07T22:07:03.262Z,5.10
2023-09-07T22:09:30.380Z,9.50
2023-09-07T22:11:57.081Z,4.32
2023-09-07T22:14:25.097Z,5.70
2023-09-07T22:16:51.811Z,5.85
2023-09-07T22:19:18.606Z,6.78
2023-09-07T22:21:45.279Z,6.07
2023-09-07T22:24:12.165Z,5.35
2023-09-07T22:26:38.915Z,4.40
2023-09-07T22:29:05.590Z,7.25
2023-09-07T22:31:33.598Z,4.78
2023-09-07T22:34:00.335Z,6.85
2023-09-07T22:36:27.048Z,7.80
2023-09-07T22:38:53.979Z,5.72
2023-09-07T22:41:20.740Z,5.53
2023-09-07T22:43:47.465Z,4.68
2023-09-07T22:46:14.124Z,5.78
2023-09-07T22:48:42.175Z,4.63
2023-09-07T22:51:08.918Z,4.10
2023-09-07T22:53:35.598Z,5.07
2023-09-07T22:56:02.874Z,5.15
2023-09-07T22:58:29.540Z,3.70
2023-09-07T23:00:57.063Z,6.82
2023-09-07T23:03:23.773Z,5.25
2023-09-07T23:05:52.598Z,3.90
2023-09-07T23:08:19.465Z,6.53
2023-09-07T23:10:46.165Z,3.90
2023-09-07T23:13:12.846Z,4.05
2023-09-07T23:15:39.822Z,4.60
2023-09-07T23:18:06.733Z,4.53
2023-09-07T23:20:33.616Z,5.13
2023-09-07T23:23:01.792Z,4.00
2023-09-07T23:25:28.535Z,5.88
2023-09-07T23:27:55.201Z,6.82
2023-09-07T23:30:22.081Z,4.57
2023-09-07T23:32:49.148Z,4.38
2023-09-07T23:35:15.871Z,4.60
2023-09-07T23:37:42.513Z,4.10
2023-09-07T23:40:12.217Z,3.92
2023-09-07T23:42:39.306Z,4.55
2023-09-07T23:45:07.305Z,3.63
2023-09-07T23:47:34.043Z,4.70
2023-09-07T23:50:00.834Z,3.95
2023-09-07T23:52:27.608Z,4.43
2023-09-07T23:54:54.588Z,5.45
2023-09-07T23:57:22.824Z,5.78
2023-09-07T23:59:49.728Z,4.90
